sensor_id;sensor_type;location;lat;lon;timestamp;pressure;altitude;pressure_sealevel;temperature;humidity
9538;BME280;4807;48.024;11.726;2023-04-09T00:01:07;95555.09;;;3.35;87.16
9538;BME280;4807;48.024;11.726;2023-04-09T00:04:16;95549.13;;;3.33;87.40
9538;BME280;4807;48.024;11.726;2023-04-09T00:07:26;95552.88;;;3.40;86.90
9538;BME280;4807;48.024;11.726;2023-04-09T00:10:34;95553.41;;;3.44;87.21
9538;BME280;4807;48.024;11.726;2023-04-09T00:13:42;95549.06;;;3.62;86.21
9538;BME280;4807;48.024;11.726;2023-04-09T00:16:50;95546.31;;;3.64;86.33
9538;BME280;4807;48.024;11.726;2023-04-09T00:19:59;95546.69;;;3.69;85.20
9538;BME280;4807;48.024;11.726;2023-04-09T00:23:08;95545.59;;;3.62;85.86
9538;BME280;4807;48.024;11.726;2023-04-09T00:26:19;95543.56;;;3.46;86.89
9538;BME280;4807;48.024;11.726;2023-04-09T00:29:28;95536.91;;;3.52;86.70
9538;BME280;4807;48.024;11.726;2023-04-09T00:32:36;95540.22;;;3.54;86.75
9538;BME280;4807;48.024;11.726;2023-04-09T00:35:44;95534.13;;;3.53;86.86
9538;BME280;4807;48.024;11.726;2023-04-09T00:38:55;95542.28;;;3.60;85.88
9538;BME280;4807;48.024;11.726;2023-04-09T00:42:04;95537.72;;;3.62;85.67
9538;BME280;4807;48.024;11.726;2023-04-09T00:45:13;95530.38;;;3.56;85.74
9538;BME280;4807;48.024;11.726;2023-04-09T00:48:21;95534.28;;;3.52;85.98
9538;BME280;4807;48.024;11.726;2023-04-09T00:51:30;95542.75;;;3.45;86.46
9538;BME280;4807;48.024;11.726;2023-04-09T00:54:40;95538.06;;;3.39;86.70
9538;BME280;4807;48.024;11.726;2023-04-09T00:57:48;95543.31;;;3.39;87.10
9538;BME280;4807;48.024;11.726;2023-04-09T01:00:57;95540.28;;;3.34;87.34
9538;BME280;4807;48.024;11.726;2023-04-09T01:04:05;95535.72;;;3.36;86.93
9538;BME280;4807;48.024;11.726;2023-04-09T01:07:22;95534.28;;;3.42;86.76
9538;BME280;4807;48.024;11.726;2023-04-09T01:10:42;95542.19;;;3.42;87.21
9538;BME280;4807;48.024;11.726;2023-04-09T01:14:04;95536.78;;;3.43;86.76
9538;BME280;4807;48.024;11.726;2023-04-09T01:17:19;95541.78;;;3.47;86.85
9538;BME280;4807;48.024;11.726;2023-04-09T01:20:34;95534.72;;;3.47;86.68
9538;BME280;4807;48.024;11.726;2023-04-09T01:23:55;95535.38;;;3.49;86.34
9538;BME280;4807;48.024;11.726;2023-04-09T01:27:15;95538.34;;;3.36;86.97
9538;BME280;4807;48.024;11.726;2023-04-09T01:30:44;95534.16;;;3.43;86.76
9538;BME280;4807;48.024;11.726;2023-04-09T01:33:54;95531.63;;;3.52;85.75
9538;BME280;4807;48.024;11.726;2023-04-09T01:37:05;95530.56;;;3.44;86.29
9538;BME280;4807;48.024;11.726;2023-04-09T01:40:14;95537.47;;;3.55;86.02
9538;BME280;4807;48.024;11.726;2023-04-09T01:43:25;95534.00;;;3.55;85.40
9538;BME280;4807;48.024;11.726;2023-04-09T01:46:36;95538.28;;;3.56;86.08
9538;BME280;4807;48.024;11.726;2023-04-09T01:49:47;95534.00;;;3.55;85.36
9538;BME280;4807;48.024;11.726;2023-04-09T01:52:57;95534.00;;;3.55;85.41
9538;BME280;4807;48.024;11.726;2023-04-09T01:56:07;95533.31;;;3.53;85.41
9538;BME280;4807;48.024;11.726;2023-04-09T01:59:16;95535.66;;;3.56;86.13
9538;BME280;4807;48.024;11.726;2023-04-09T02:02:35;95536.63;;;3.55;85.58
9538;BME280;4807;48.024;11.726;2023-04-09T02:05:52;95532.22;;;3.45;85.88
9538;BME280;4807;48.024;11.726;2023-04-09T02:09:06;95531.94;;;3.49;85.34
9538;BME280;4807;48.024;11.726;2023-04-09T02:12:17;95538.00;;;3.49;84.97
9538;BME280;4807;48.024;11.726;2023-04-09T02:15:29;95534.56;;;3.49;84.77
9538;BME280;4807;48.024;11.726;2023-04-09T02:18:46;95532.94;;;3.38;85.64
9538;BME280;4807;48.024;11.726;2023-04-09T02:21:55;95536.66;;;3.35;86.19
9538;BME280;4807;48.024;11.726;2023-04-09T02:25:04;95530.56;;;3.44;85.86
9538;BME280;4807;48.024;11.726;2023-04-09T02:28:13;95532.94;;;3.28;86.03
9538;BME280;4807;48.024;11.726;2023-04-09T02:31:21;95531.41;;;3.35;85.76
9538;BME280;4807;48.024;11.726;2023-04-09T02:34:30;95532.69;;;3.31;86.10
9538;BME280;4807;48.024;11.726;2023-04-09T02:37:39;95534.19;;;3.34;85.53
9538;BME280;4807;48.024;11.726;2023-04-09T02:40:47;95530.16;;;3.39;85.04
9538;BME280;4807;48.024;11.726;2023-04-09T02:43:55;95530.44;;;3.36;85.11
9538;BME280;4807;48.024;11.726;2023-04-09T02:47:04;95534.75;;;3.37;85.33
9538;BME280;4807;48.024;11.726;2023-04-09T02:50:16;95526.44;;;3.32;84.98
9538;BME280;4807;48.024;11.726;2023-04-09T02:53:28;95529.88;;;3.33;85.71
9538;BME280;4807;48.024;11.726;2023-04-09T02:56:36;95530.84;;;3.41;84.72
9538;BME280;4807;48.024;11.726;2023-04-09T02:59:46;95525.97;;;3.47;84.51
9538;BME280;4807;48.024;11.726;2023-04-09T03:02:54;95528.09;;;3.33;85.03
9538;BME280;4807;48.024;11.726;2023-04-09T03:06:05;95527.53;;;3.39;85.05
9538;BME280;4807;48.024;11.726;2023-04-09T03:09:13;95525.88;;;3.38;85.00
9538;BME280;4807;48.024;11.726;2023-04-09T03:12:21;95516.72;;;3.33;85.53
9538;BME280;4807;48.024;11.726;2023-04-09T03:15:30;95511.63;;;3.31;85.39
9538;BME280;4807;48.024;11.726;2023-04-09T03:18:38;95511.03;;;3.37;84.99
9538;BME280;4807;48.024;11.726;2023-04-09T03:21:47;95503.38;;;3.07;85.59
9538;BME280;4807;48.024;11.726;2023-04-09T03:25:04;95509.06;;;2.93;86.85
9538;BME280;4807;48.024;11.726;2023-04-09T03:28:14;95517.88;;;3.11;85.49
9538;BME280;4807;48.024;11.726;2023-04-09T03:31:29;95522.75;;;3.06;85.81
9538;BME280;4807;48.024;11.726;2023-04-09T03:34:37;95525.13;;;2.99;86.24
9538;BME280;4807;48.024;11.726;2023-04-09T03:37:47;95522.78;;;2.87;86.47
9538;BME280;4807;48.024;11.726;2023-04-09T03:40:57;95528.19;;;2.76;86.54
9538;BME280;4807;48.024;11.726;2023-04-09T03:44:06;95531.22;;;2.61;86.55
9538;BME280;4807;48.024;11.726;2023-04-09T03:47:31;95527.63;;;2.43;86.54
9538;BME280;4807;48.024;11.726;2023-04-09T03:50:41;95533.28;;;2.39;87.03
9538;BME280;4807;48.024;11.726;2023-04-09T03:53:54;95528.69;;;2.21;86.63
9538;BME280;4807;48.024;11.726;2023-04-09T03:57:03;95529.75;;;2.00;86.77
9538;BME280;4807;48.024;11.726;2023-04-09T04:00:17;95532.78;;;1.85;88.02
9538;BME280;4807;48.024;11.726;2023-04-09T04:03:49;95541.59;;;1.84;87.94
9538;BME280;4807;48.024;11.726;2023-04-09T04:07:02;95539.94;;;1.83;87.06
9538;BME280;4807;48.024;11.726;2023-04-09T04:10:19;95536.56;;;1.72;88.03
9538;BME280;4807;48.024;11.726;2023-04-09T04:13:27;95543.50;;;1.73;87.87
9538;BME280;4807;48.024;11.726;2023-04-09T04:16:39;95541.28;;;1.68;88.21
9538;BME280;4807;48.024;11.726;2023-04-09T04:19:48;95544.59;;;1.70;87.96
9538;BME280;4807;48.024;11.726;2023-04-09T04:22:57;95547.41;;;1.78;87.91
9538;BME280;4807;48.024;11.726;2023-04-09T04:26:09;95541.28;;;1.68;88.45
9538;BME280;4807;48.024;11.726;2023-04-09T04:29:18;95545.72;;;1.77;88.06
9538;BME280;4807;48.024;11.726;2023-04-09T04:32:33;95547.66;;;1.75;87.92
9538;BME280;4807;48.024;11.726;2023-04-09T04:35:46;95544.84;;;1.67;88.42
9538;BME280;4807;48.024;11.726;2023-04-09T04:39:11;95548.69;;;1.53;88.96
9538;BME280;4807;48.024;11.726;2023-04-09T04:42:46;95543.09;;;1.77;88.30
9538;BME280;4807;48.024;11.726;2023-04-09T04:45:55;95534.00;;;1.81;88.00
9538;BME280;4807;48.024;11.726;2023-04-09T04:49:06;95533.84;;;1.83;88.98
9538;BME280;4807;48.024;11.726;2023-04-09T04:52:22;95522.44;;;2.03;88.27
9538;BME280;4807;48.024;11.726;2023-04-09T04:55:34;95523.28;;;2.13;88.05
9538;BME280;4807;48.024;11.726;2023-04-09T04:58:44;95528.84;;;2.29;88.08
9538;BME280;4807;48.024;11.726;2023-04-09T05:01:55;95547.97;;;2.41;86.80
9538;BME280;4807;48.024;11.726;2023-04-09T05:05:05;95560.25;;;2.31;87.01
9538;BME280;4807;48.024;11.726;2023-04-09T05:08:21;95564.50;;;2.22;87.25
9538;BME280;4807;48.024;11.726;2023-04-09T05:11:32;95566.28;;;2.12;87.18
9538;BME280;4807;48.024;11.726;2023-04-09T05:14:47;95565.13;;;1.86;87.38
9538;BME280;4807;48.024;11.726;2023-04-09T05:17:57;95568.81;;;1.83;88.37
9538;BME280;4807;48.024;11.726;2023-04-09T05:21:07;95564.03;;;1.98;87.66
9538;BME280;4807;48.024;11.726;2023-04-09T05:24:16;95564.88;;;1.99;87.31
9538;BME280;4807;48.024;11.726;2023-04-09T05:27:24;95565.69;;;1.99;87.67
9538;BME280;4807;48.024;11.726;2023-04-09T05:30:40;95569.41;;;1.97;87.80
9538;BME280;4807;48.024;11.726;2023-04-09T05:33:51;95569.47;;;2.16;87.78
9538;BME280;4807;48.024;11.726;2023-04-09T05:37:06;95569.91;;;2.21;88.34
9538;BME280;4807;48.024;11.726;2023-04-09T05:40:15;95563.84;;;2.30;87.84
9538;BME280;4807;48.024;11.726;2023-04-09T05:43:25;95563.88;;;2.49;87.51
9538;BME280;4807;48.024;11.726;2023-04-09T05:46:35;95564.16;;;2.65;86.20
9538;BME280;4807;48.024;11.726;2023-04-09T05:49:44;95561.94;;;2.71;86.07
9538;BME280;4807;48.024;11.726;2023-04-09T05:52:54;95563.63;;;2.91;85.27
9538;BME280;4807;48.024;11.726;2023-04-09T05:56:13;95566.66;;;3.15;85.40
9538;BME280;4807;48.024;11.726;2023-04-09T05:59:32;95564.78;;;3.44;83.79
9538;BME280;4807;48.024;11.726;2023-04-09T06:02:42;95579.28;;;3.58;82.44
9538;BME280;4807;48.024;11.726;2023-04-09T06:05:51;95580.94;;;3.69;80.86
9538;BME280;4807;48.024;11.726;2023-04-09T06:08:59;95576.94;;;3.92;80.00
9538;BME280;4807;48.024;11.726;2023-04-09T06:12:08;95585.41;;;4.23;81.08
9538;BME280;4807;48.024;11.726;2023-04-09T06:15:17;95590.75;;;4.58;79.85
9538;BME280;4807;48.024;11.726;2023-04-09T06:18:27;95582.06;;;4.93;78.03
9538;BME280;4807;48.024;11.726;2023-04-09T06:21:36;95588.19;;;5.20;76.44
9538;BME280;4807;48.024;11.726;2023-04-09T06:24:45;95582.63;;;5.41;76.24
9538;BME280;4807;48.024;11.726;2023-04-09T06:27:54;95587.69;;;5.16;74.20
9538;BME280;4807;48.024;11.726;2023-04-09T06:31:03;95590.75;;;5.47;75.47
9538;BME280;4807;48.024;11.726;2023-04-09T06:34:13;95597.38;;;5.51;74.09
9538;BME280;4807;48.024;11.726;2023-04-09T06:37:21;95591.53;;;5.65;74.10
9538;BME280;4807;48.024;11.726;2023-04-09T06:40:30;95597.81;;;5.64;73.86
9538;BME280;4807;48.024;11.726;2023-04-09T06:43:38;95588.75;;;5.93;74.19
9538;BME280;4807;48.024;11.726;2023-04-09T06:46:47;95593.00;;;6.54;72.85
9538;BME280;4807;48.024;11.726;2023-04-09T06:49:57;95598.91;;;6.05;71.00
9538;BME280;4807;48.024;11.726;2023-04-09T06:53:06;95594.41;;;6.32;71.13
9538;BME280;4807;48.024;11.726;2023-04-09T06:56:14;95596.06;;;6.91;69.99
9538;BME280;4807;48.024;11.726;2023-04-09T06:59:22;95598.00;;;6.65;71.09
9538;BME280;4807;48.024;11.726;2023-04-09T07:02:31;95604.47;;;6.70;71.13
9538;BME280;4807;48.024;11.726;2023-04-09T07:05:41;95600.78;;;7.62;70.11
9538;BME280;4807;48.024;11.726;2023-04-09T07:08:50;95606.41;;;7.43;70.34
9538;BME280;4807;48.024;11.726;2023-04-09T07:11:58;95596.38;;;8.18;68.86
9538;BME280;4807;48.024;11.726;2023-04-09T07:15:07;95603.66;;;9.25;63.99
9538;BME280;4807;48.024;11.726;2023-04-09T07:18:16;95604.88;;;8.91;63.92
9538;BME280;4807;48.024;11.726;2023-04-09T07:21:25;95610.25;;;9.06;63.81
9538;BME280;4807;48.024;11.726;2023-04-09T07:24:35;95602.56;;;9.79;64.01
9538;BME280;4807;48.024;11.726;2023-04-09T07:27:43;95600.13;;;9.92;63.32
9538;BME280;4807;48.024;11.726;2023-04-09T07:30:52;95610.16;;;10.93;60.28
9538;BME280;4807;48.024;11.726;2023-04-09T07:34:00;95596.63;;;11.52;57.54
9538;BME280;4807;48.024;11.726;2023-04-09T07:37:10;95596.47;;;11.60;55.16
9538;BME280;4807;48.024;11.726;2023-04-09T07:40:19;95599.94;;;12.66;55.13
9538;BME280;4807;48.024;11.726;2023-04-09T07:43:27;95598.84;;;13.42;52.29
9538;BME280;4807;48.024;11.726;2023-04-09T07:46:35;95597.00;;;12.47;52.59
9538;BME280;4807;48.024;11.726;2023-04-09T07:49:45;95596.50;;;10.67;57.42
9538;BME280;4807;48.024;11.726;2023-04-09T07:52:55;95598.72;;;10.34;59.91
9538;BME280;4807;48.024;11.726;2023-04-09T07:56:05;95599.84;;;10.02;58.63
9538;BME280;4807;48.024;11.726;2023-04-09T07:59:13;95607.78;;;11.20;58.15
9538;BME280;4807;48.024;11.726;2023-04-09T08:02:22;95602.84;;;11.17;57.70
9538;BME280;4807;48.024;11.726;2023-04-09T08:05:31;95602.94;;;11.08;57.58
9538;BME280;4807;48.024;11.726;2023-04-09T08:08:41;95604.41;;;10.60;59.30
9538;BME280;4807;48.024;11.726;2023-04-09T08:11:50;95613.69;;;10.50;58.37
9538;BME280;4807;48.024;11.726;2023-04-09T08:14:59;95608.63;;;11.05;55.50
9538;BME280;4807;48.024;11.726;2023-04-09T08:18:09;95611.72;;;11.45;54.29
9538;BME280;4807;48.024;11.726;2023-04-09T08:21:18;95610.75;;;12.51;52.35
9538;BME280;4807;48.024;11.726;2023-04-09T08:24:28;95599.88;;;13.48;50.52
9538;BME280;4807;48.024;11.726;2023-04-09T08:27:37;95605.41;;;13.33;47.62
9538;BME280;4807;48.024;11.726;2023-04-09T08:30:45;95599.72;;;14.08;45.29
9538;BME280;4807;48.024;11.726;2023-04-09T08:33:54;95597.88;;;13.09;45.51
9538;BME280;4807;48.024;11.726;2023-04-09T08:37:03;95605.34;;;12.10;48.31
9538;BME280;4807;48.024;11.726;2023-04-09T08:40:13;95601.44;;;11.21;49.70
9538;BME280;4807;48.024;11.726;2023-04-09T08:43:24;95600.19;;;11.59;48.42
9538;BME280;4807;48.024;11.726;2023-04-09T08:46:53;95604.34;;;12.39;49.20
9538;BME280;4807;48.024;11.726;2023-04-09T08:50:05;95610.16;;;11.72;46.79
9538;BME280;4807;48.024;11.726;2023-04-09T08:53:16;95610.69;;;13.13;46.71
9538;BME280;4807;48.024;11.726;2023-04-09T08:56:27;95614.44;;;13.25;46.68
9538;BME280;4807;48.024;11.726;2023-04-09T08:59:35;95623.75;;;13.43;45.06
9538;BME280;4807;48.024;11.726;2023-04-09T09:03:02;95626.19;;;12.21;45.65
9538;BME280;4807;48.024;11.726;2023-04-09T09:06:20;95624.47;;;12.41;48.19
9538;BME280;4807;48.024;11.726;2023-04-09T09:09:29;95629.00;;;12.13;47.36
9538;BME280;4807;48.024;11.726;2023-04-09T09:12:40;95626.44;;;12.60;46.75
9538;BME280;4807;48.024;11.726;2023-04-09T09:15:49;95632.31;;;11.72;49.21
9538;BME280;4807;48.024;11.726;2023-04-09T09:19:01;95627.75;;;11.66;49.12
9538;BME280;4807;48.024;11.726;2023-04-09T09:22:10;95625.09;;;11.66;49.36
9538;BME280;4807;48.024;11.726;2023-04-09T09:25:19;95624.84;;;10.89;52.18
9538;BME280;4807;48.024;11.726;2023-04-09T09:28:35;95624.38;;;11.00;51.96
9538;BME280;4807;48.024;11.726;2023-04-09T09:31:48;95627.59;;;11.11;51.71
9538;BME280;4807;48.024;11.726;2023-04-09T09:35:00;95624.19;;;10.87;52.79
9538;BME280;4807;48.024;11.726;2023-04-09T09:38:08;95622.03;;;10.61;55.30
9538;BME280;4807;48.024;11.726;2023-04-09T09:41:17;95614.44;;;11.09;53.60
9538;BME280;4807;48.024;11.726;2023-04-09T09:44:33;95615.41;;;11.23;51.64
9538;BME280;4807;48.024;11.726;2023-04-09T09:47:43;95611.66;;;11.38;49.80
9538;BME280;4807;48.024;11.726;2023-04-09T09:50:52;95605.53;;;12.36;49.40
9538;BME280;4807;48.024;11.726;2023-04-09T09:54:02;95614.75;;;12.61;48.15
9538;BME280;4807;48.024;11.726;2023-04-09T09:57:11;95617.88;;;12.09;49.57
9538;BME280;4807;48.024;11.726;2023-04-09T10:00:25;95628.53;;;12.31;47.31
9538;BME280;4807;48.024;11.726;2023-04-09T10:03:37;95620.31;;;12.67;47.13
9538;BME280;4807;48.024;11.726;2023-04-09T10:06:48;95621.91;;;11.99;46.27
9538;BME280;4807;48.024;11.726;2023-04-09T10:10:01;95620.25;;;12.53;47.13
9538;BME280;4807;48.024;11.726;2023-04-09T10:13:16;95614.22;;;12.79;46.28
9538;BME280;4807;48.024;11.726;2023-04-09T10:16:29;95610.03;;;13.05;44.34
9538;BME280;4807;48.024;11.726;2023-04-09T10:19:43;95612.69;;;12.29;47.55
9538;BME280;4807;48.024;11.726;2023-04-09T10:22:55;95615.59;;;12.34;47.26
9538;BME280;4807;48.024;11.726;2023-04-09T10:26:04;95617.34;;;11.50;48.31
9538;BME280;4807;48.024;11.726;2023-04-09T10:29:14;95610.94;;;11.87;48.63
9538;BME280;4807;48.024;11.726;2023-04-09T10:32:25;95613.19;;;11.26;49.07
9538;BME280;4807;48.024;11.726;2023-04-09T10:35:34;95613.97;;;11.84;48.86
9538;BME280;4807;48.024;11.726;2023-04-09T10:38:45;95610.47;;;11.62;49.06
9538;BME280;4807;48.024;11.726;2023-04-09T10:41:55;95608.31;;;11.51;48.74
9538;BME280;4807;48.024;11.726;2023-04-09T10:45:09;95613.78;;;11.64;48.95
9538;BME280;4807;48.024;11.726;2023-04-09T10:48:19;95612.25;;;11.98;49.86
9538;BME280;4807;48.024;11.726;2023-04-09T10:51:27;95613.41;;;11.67;50.08
9538;BME280;4807;48.024;11.726;2023-04-09T10:54:47;95611.88;;;12.29;48.60
9538;BME280;4807;48.024;11.726;2023-04-09T10:57:57;95610.84;;;11.17;49.66
9538;BME280;4807;48.024;11.726;2023-04-09T11:01:05;95612.09;;;10.85;52.40
9538;BME280;4807;48.024;11.726;2023-04-09T11:04:18;95604.31;;;10.24;51.26
9538;BME280;4807;48.024;11.726;2023-04-09T11:07:32;95617.56;;;9.95;53.36
9538;BME280;4807;48.024;11.726;2023-04-09T11:10:44;95609.97;;;9.69;54.44
9538;BME280;4807;48.024;11.726;2023-04-09T11:13:58;95614.72;;;9.36;55.69
9538;BME280;4807;48.024;11.726;2023-04-09T11:17:08;95618.84;;;9.16;55.10
9538;BME280;4807;48.024;11.726;2023-04-09T11:20:20;95614.97;;;8.65;56.95
9538;BME280;4807;48.024;11.726;2023-04-09T11:23:31;95608.19;;;8.54;58.36
9538;BME280;4807;48.024;11.726;2023-04-09T11:26:39;95610.19;;;8.52;59.79
9538;BME280;4807;48.024;11.726;2023-04-09T11:29:54;95617.97;;;8.54;59.12
9538;BME280;4807;48.024;11.726;2023-04-09T11:33:02;95618.78;;;8.62;58.96
9538;BME280;4807;48.024;11.726;2023-04-09T11:36:12;95613.44;;;8.70;58.72
9538;BME280;4807;48.024;11.726;2023-04-09T11:39:21;95617.44;;;8.66;59.14
9538;BME280;4807;48.024;11.726;2023-04-09T11:42:30;95615.63;;;8.67;58.67
9538;BME280;4807;48.024;11.726;2023-04-09T11:45:38;95614.97;;;8.96;59.27
9538;BME280;4807;48.024;11.726;2023-04-09T11:48:49;95621.06;;;9.27;56.17
9538;BME280;4807;48.024;11.726;2023-04-09T11:52:00;95622.56;;;9.52;56.01
9538;BME280;4807;48.024;11.726;2023-04-09T11:55:10;95614.81;;;9.66;56.90
9538;BME280;4807;48.024;11.726;2023-04-09T11:58:22;95623.00;;;10.16;55.12
9538;BME280;4807;48.024;11.726;2023-04-09T12:01:31;95617.06;;;10.58;54.56
9538;BME280;4807;48.024;11.726;2023-04-09T12:04:50;95614.97;;;11.40;51.85
9538;BME280;4807;48.024;11.726;2023-04-09T12:08:02;95623.88;;;11.47;50.74
9538;BME280;4807;48.024;11.726;2023-04-09T12:11:14;95624.19;;;11.02;51.01
9538;BME280;4807;48.024;11.726;2023-04-09T12:14:22;95616.00;;;10.53;53.63
9538;BME280;4807;48.024;11.726;2023-04-09T12:17:31;95617.13;;;10.94;51.81
9538;BME280;4807;48.024;11.726;2023-04-09T12:20:42;95613.59;;;11.08;51.44
9538;BME280;4807;48.024;11.726;2023-04-09T12:23:53;95617.81;;;11.39;51.91
9538;BME280;4807;48.024;11.726;2023-04-09T12:27:01;95614.44;;;11.09;52.15
9538;BME280;4807;48.024;11.726;2023-04-09T12:30:10;95621.91;;;11.56;51.72
9538;BME280;4807;48.024;11.726;2023-04-09T12:33:18;95617.53;;;12.19;49.86
9538;BME280;4807;48.024;11.726;2023-04-09T12:36:26;95619.03;;;12.97;46.61
9538;BME280;4807;48.024;11.726;2023-04-09T12:39:37;95616.25;;;12.77;46.16
9538;BME280;4807;48.024;11.726;2023-04-09T12:42:46;95615.97;;;11.75;50.75
9538;BME280;4807;48.024;11.726;2023-04-09T12:45:55;95614.16;;;12.04;49.74
9538;BME280;4807;48.024;11.726;2023-04-09T12:49:04;95617.16;;;12.22;48.72
9538;BME280;4807;48.024;11.726;2023-04-09T12:52:13;95615.47;;;11.93;48.18
9538;BME280;4807;48.024;11.726;2023-04-09T12:55:23;95615.75;;;11.56;49.90
9538;BME280;4807;48.024;11.726;2023-04-09T12:58:31;95615.50;;;11.51;48.68
9538;BME280;4807;48.024;11.726;2023-04-09T13:01:40;95610.38;;;10.77;51.10
9538;BME280;4807;48.024;11.726;2023-04-09T13:04:50;95609.53;;;11.13;50.60
9538;BME280;4807;48.024;11.726;2023-04-09T13:07:59;95606.22;;;11.25;49.30
9538;BME280;4807;48.024;11.726;2023-04-09T13:11:10;95610.97;;;11.30;49.98
9538;BME280;4807;48.024;11.726;2023-04-09T13:14:19;95619.13;;;11.07;49.56
9538;BME280;4807;48.024;11.726;2023-04-09T13:17:28;95610.09;;;10.43;51.05
9538;BME280;4807;48.024;11.726;2023-04-09T13:20:36;95613.97;;;9.88;51.93
9538;BME280;4807;48.024;11.726;2023-04-09T13:23:45;95613.53;;;10.14;52.26
9538;BME280;4807;48.024;11.726;2023-04-09T13:26:54;95605.78;;;10.56;51.83
9538;BME280;4807;48.024;11.726;2023-04-09T13:30:04;95607.88;;;10.46;51.17
9538;BME280;4807;48.024;11.726;2023-04-09T13:33:12;95605.53;;;10.37;52.25
9538;BME280;4807;48.024;11.726;2023-04-09T13:36:20;95605.41;;;10.30;52.12
9538;BME280;4807;48.024;11.726;2023-04-09T13:39:29;95606.09;;;9.94;53.19
9538;BME280;4807;48.024;11.726;2023-04-09T13:42:38;95598.47;;;9.91;52.72
9538;BME280;4807;48.024;11.726;2023-04-09T13:45:46;95603.66;;;10.22;52.96
9538;BME280;4807;48.024;11.726;2023-04-09T13:48:55;95595.41;;;10.17;53.79
9538;BME280;4807;48.024;11.726;2023-04-09T13:52:04;95594.72;;;10.15;54.26
9538;BME280;4807;48.024;11.726;2023-04-09T13:55:12;95599.28;;;9.54;54.78
9538;BME280;4807;48.024;11.726;2023-04-09T13:58:23;95597.81;;;9.29;56.13
9538;BME280;4807;48.024;11.726;2023-04-09T14:01:32;95599.13;;;9.56;55.61
9538;BME280;4807;48.024;11.726;2023-04-09T14:04:40;95598.38;;;10.14;54.68
9538;BME280;4807;48.024;11.726;2023-04-09T14:07:51;95589.34;;;10.67;52.84
9538;BME280;4807;48.024;11.726;2023-04-09T14:10:59;95592.69;;;11.48;50.79
9538;BME280;4807;48.024;11.726;2023-04-09T14:14:09;95584.06;;;11.46;49.84
9538;BME280;4807;48.024;11.726;2023-04-09T14:17:17;95592.16;;;12.02;49.71
9538;BME280;4807;48.024;11.726;2023-04-09T14:20:26;95591.41;;;11.87;48.10
9538;BME280;4807;48.024;11.726;2023-04-09T14:23:34;95587.28;;;11.84;48.66
9538;BME280;4807;48.024;11.726;2023-04-09T14:26:43;95584.59;;;12.05;48.45
9538;BME280;4807;48.024;11.726;2023-04-09T14:29:53;95582.53;;;11.58;49.52
9538;BME280;4807;48.024;11.726;2023-04-09T14:33:02;95587.31;;;12.12;49.11
9538;BME280;4807;48.024;11.726;2023-04-09T14:36:10;95577.19;;;12.35;47.92
9538;BME280;4807;48.024;11.726;2023-04-09T14:39:19;95581.19;;;11.47;50.29
9538;BME280;4807;48.024;11.726;2023-04-09T14:42:27;95578.34;;;11.49;51.59
9538;BME280;4807;48.024;11.726;2023-04-09T14:45:37;95572.38;;;11.26;48.89
9538;BME280;4807;48.024;11.726;2023-04-09T14:48:46;95581.81;;;11.07;48.70
9538;BME280;4807;48.024;11.726;2023-04-09T14:51:54;95573.25;;;11.12;49.45
9538;BME280;4807;48.024;11.726;2023-04-09T14:55:03;95573.06;;;10.77;49.62
9538;BME280;4807;48.024;11.726;2023-04-09T14:58:12;95572.91;;;10.64;50.83
9538;BME280;4807;48.024;11.726;2023-04-09T15:01:22;95576.88;;;10.53;51.05
9538;BME280;4807;48.024;11.726;2023-04-09T15:04:30;95574.41;;;10.52;51.75
9538;BME280;4807;48.024;11.726;2023-04-09T15:07:38;95574.59;;;10.36;51.87
9538;BME280;4807;48.024;11.726;2023-04-09T15:10:47;95574.53;;;10.06;53.60
9538;BME280;4807;48.024;11.726;2023-04-09T15:13:56;95570.69;;;9.94;52.39
9538;BME280;4807;48.024;11.726;2023-04-09T15:17:06;95571.47;;;10.17;53.46
9538;BME280;4807;48.024;11.726;2023-04-09T15:20:15;95560.19;;;10.81;51.21
9538;BME280;4807;48.024;11.726;2023-04-09T15:23:24;95555.84;;;10.44;48.70
9538;BME280;4807;48.024;11.726;2023-04-09T15:26:33;95556.66;;;10.59;48.93
9538;BME280;4807;48.024;11.726;2023-04-09T15:29:42;95555.47;;;10.47;48.17
9538;BME280;4807;48.024;11.726;2023-04-09T15:32:51;95557.03;;;10.56;48.81
9538;BME280;4807;48.024;11.726;2023-04-09T15:36:00;95549.50;;;10.95;48.56
9538;BME280;4807;48.024;11.726;2023-04-09T15:39:09;95560.38;;;11.15;46.21
9538;BME280;4807;48.024;11.726;2023-04-09T15:42:17;95558.28;;;11.11;44.85
9538;BME280;4807;48.024;11.726;2023-04-09T15:45:28;95567.28;;;11.09;45.01
9538;BME280;4807;48.024;11.726;2023-04-09T15:48:38;95551.97;;;10.97;46.44
9538;BME280;4807;48.024;11.726;2023-04-09T15:51:47;95558.66;;;10.57;48.25
9538;BME280;4807;48.024;11.726;2023-04-09T15:54:55;95550.63;;;10.36;49.43
9538;BME280;4807;48.024;11.726;2023-04-09T15:58:03;95560.81;;;10.17;50.10
9538;BME280;4807;48.024;11.726;2023-04-09T16:01:11;95546.81;;;10.15;50.24
9538;BME280;4807;48.024;11.726;2023-04-09T16:04:21;95548.31;;;10.03;50.24
9538;BME280;4807;48.024;11.726;2023-04-09T16:07:29;95548.31;;;10.03;49.89
9538;BME280;4807;48.024;11.726;2023-04-09T16:10:39;95548.66;;;10.00;48.78
9538;BME280;4807;48.024;11.726;2023-04-09T16:13:49;95545.81;;;10.16;50.58
9538;BME280;4807;48.024;11.726;2023-04-09T16:16:58;95545.84;;;10.31;49.89
9538;BME280;4807;48.024;11.726;2023-04-09T16:20:08;95541.06;;;10.41;49.29
9538;BME280;4807;48.024;11.726;2023-04-09T16:23:17;95544.09;;;10.53;48.78
9538;BME280;4807;48.024;11.726;2023-04-09T16:26:25;95543.88;;;10.69;48.50
9538;BME280;4807;48.024;11.726;2023-04-09T16:29:33;95542.72;;;10.93;47.24
9538;BME280;4807;48.024;11.726;2023-04-09T16:32:42;95545.16;;;10.73;47.88
9538;BME280;4807;48.024;11.726;2023-04-09T16:35:52;95552.69;;;10.55;49.15
9538;BME280;4807;48.024;11.726;2023-04-09T16:39:00;95560.81;;;10.17;49.53
9538;BME280;4807;48.024;11.726;2023-04-09T16:42:09;95561.31;;;9.98;50.42
9538;BME280;4807;48.024;11.726;2023-04-09T16:45:18;95559.63;;;9.82;52.00
9538;BME280;4807;48.024;11.726;2023-04-09T16:48:26;95564.00;;;9.61;52.26
9538;BME280;4807;48.024;11.726;2023-04-09T16:51:37;95573.13;;;9.43;53.44
9538;BME280;4807;48.024;11.726;2023-04-09T16:54:45;95570.31;;;9.22;53.36
9538;BME280;4807;48.024;11.726;2023-04-09T16:57:53;95566.03;;;8.90;54.69
9538;BME280;4807;48.024;11.726;2023-04-09T17:01:03;95571.44;;;8.74;55.12
9538;BME280;4807;48.024;11.726;2023-04-09T17:04:11;95573.06;;;8.44;56.96
9538;BME280;4807;48.024;11.726;2023-04-09T17:07:22;95569.97;;;8.24;58.15
9538;BME280;4807;48.024;11.726;2023-04-09T17:10:31;95562.41;;;8.05;58.82